Time;durP1;ratioP1;P1;durP2;ratioP2;P2;SDS_P1;SDS_P2;PMS_P1;PMS_P2;Temp;Humidity;BMP_temperature;BMP_pressure;BME280_temperature;BME280_humidity;BME280_pressure;Samples;Min_cycle;Max_cycle;Signal;HPM_P1;HPM_P2
2022/07/15 00:02:15;;;;;;;;;;;15.70;99.90;;;;;;5019606;28;19926;-66
2022/07/15 00:04:42;;;;;;;;;;;15.70;99.90;;;;;;5020694;28;19992;-65
2022/07/15 00:07:09;;;;;;;;;;;15.70;99.90;;;;;;5013933;28;20297;-65
2022/07/15 00:12:20;;;;;;;;;;;15.70;99.90;;;;;;5018125;28;19922;-66
2022/07/15 00:14:47;;;;;;;;;;;15.70;99.90;;;;;;5016275;28;19930;-64
2022/07/15 00:17:13;;;;;;;;;;;15.70;99.90;;;;;;5000923;28;19930;-66
2022/07/15 00:19:41;;;;;;;;;;;15.70;99.90;;;;;;5015910;28;20397;-65
2022/07/15 00:22:08;;;;;;;;;;;15.70;99.90;;;;;;5017357;28;19929;-66
2022/07/15 00:24:35;;;;;;;;;;;15.70;99.90;;;;;;5017081;28;19925;-66
2022/07/15 00:27:02;;;;;;;;;;;15.70;99.90;;;;;;5016859;28;19925;-66
2022/07/15 00:29:29;;;;;;;;;;;15.70;99.90;;;;;;5018758;28;20020;-65
2022/07/15 00:31:56;;;;;;;;;;;15.70;99.90;;;;;;5014170;28;19969;-65
2022/07/15 00:34:22;;;;;;;;;;;15.80;99.90;;;;;;5014590;28;19976;-66
2022/07/15 00:36:50;;;;;;;;;;;15.80;99.90;;;;;;4999783;28;20020;-65
2022/07/15 00:39:17;;;;;;;;;;;15.80;99.90;;;;;;5015853;28;19980;-66
2022/07/15 00:41:44;;;;;;;;;;;15.80;99.90;;;;;;5012676;28;19926;-65
2022/07/15 00:44:12;;;;;;;;;;;15.90;99.90;;;;;;5019923;28;19925;-66
2022/07/15 00:46:39;;;;;;;;;;;15.80;99.90;;;;;;5016585;28;19930;-65
2022/07/15 00:49:07;;;;;;;;;;;15.90;99.90;;;;;;5009203;28;20016;-65
2022/07/15 00:51:35;;;;;;;;;;;15.90;99.90;;;;;;5017447;28;19985;-65
2022/07/15 00:54:05;;;;;;;;;;;15.80;99.90;;;;;;4999897;28;19925;-65
2022/07/15 00:56:32;;;;;;;;;;;15.80;99.90;;;;;;5021107;28;19929;-66
2022/07/15 00:59:00;;;;;;;;;;;15.90;99.90;;;;;;5013281;28;19930;-65
2022/07/15 01:01:27;;;;;;;;;;;15.90;99.90;;;;;;5017497;28;19933;-66
2022/07/15 01:03:54;;;;;;;;;;;15.90;99.90;;;;;;5016071;28;19933;-66
2022/07/15 01:06:20;;;;;;;;;;;15.80;99.90;;;;;;5020489;28;19925;-66
2022/07/15 01:08:47;;;;;;;;;;;15.80;99.90;;;;;;5017773;28;19961;-66
2022/07/15 01:11:15;;;;;;;;;;;15.80;99.90;;;;;;5021557;28;20327;-66
2022/07/15 01:13:42;;;;;;;;;;;15.80;99.90;;;;;;5012793;28;19934;-65
2022/07/15 01:16:10;;;;;;;;;;;15.80;99.90;;;;;;5018519;28;19933;-65
2022/07/15 01:18:37;;;;;;;;;;;15.80;99.90;;;;;;5018452;28;20413;-65
2022/07/15 01:21:07;;;;;;;;;;;15.80;99.90;;;;;;4994517;28;20282;-66
2022/07/15 01:23:36;;;;;;;;;;;15.70;99.90;;;;;;5016440;28;19976;-66
2022/07/15 01:26:08;;;;;;;;;;;15.80;99.90;;;;;;5015093;28;19925;-66
2022/07/15 01:28:35;;;;;;;;;;;15.80;99.90;;;;;;5016915;28;19933;-65
2022/07/15 01:31:01;;;;;;;;;;;15.80;99.90;;;;;;5013057;28;19929;-63
2022/07/15 01:33:31;;;;;;;;;;;15.80;99.90;;;;;;5015652;28;19937;-63
2022/07/15 01:35:59;;;;;;;;;;;15.70;99.90;;;;;;5011616;28;19932;-64
2022/07/15 01:38:29;;;;;;;;;;;15.70;99.90;;;;;;5019247;28;20413;-63
2022/07/15 01:41:01;;;;;;;;;;;15.80;99.90;;;;;;5013625;28;20012;-64
2022/07/15 01:43:34;;;;;;;;;;;15.80;99.90;;;;;;5012047;28;20298;-64
2022/07/15 01:46:00;;;;;;;;;;;15.80;99.90;;;;;;5018181;28;19933;-64
2022/07/15 01:51:39;;;;;;;;;;;15.70;99.90;;;;;;5018398;28;19929;-63
2022/07/15 01:54:07;;;;;;;;;;;15.60;99.90;;;;;;4999873;28;19965;-64
2022/07/15 01:56:36;;;;;;;;;;;15.60;99.90;;;;;;5012274;28;20393;-63
2022/07/15 01:59:04;;;;;;;;;;;15.50;99.90;;;;;;5018071;28;20488;-64
2022/07/15 02:01:31;;;;;;;;;;;15.50;99.90;;;;;;4994961;28;19926;-64
2022/07/15 02:04:02;;;;;;;;;;;15.40;99.90;;;;;;5016956;28;20331;-64
2022/07/15 02:06:29;;;;;;;;;;;15.30;99.90;;;;;;5012926;28;19933;-64
2022/07/15 02:08:57;;;;;;;;;;;15.30;99.90;;;;;;5018050;28;19933;-64
2022/07/15 02:11:27;;;;;;;;;;;15.30;99.90;;;;;;5013302;28;19934;-63
2022/07/15 02:13:58;;;;;;;;;;;15.20;99.90;;;;;;5019219;28;19992;-64
2022/07/15 02:16:25;;;;;;;;;;;15.30;99.90;;;;;;5015253;28;19964;-64
2022/07/15 02:18:52;;;;;;;;;;;15.20;99.90;;;;;;5016261;28;20312;-63
2022/07/15 02:21:19;;;;;;;;;;;15.30;99.90;;;;;;5016126;28;19926;-64
2022/07/15 02:23:46;;;;;;;;;;;15.30;99.90;;;;;;5013681;28;19948;-64
2022/07/15 02:26:13;;;;;;;;;;;15.20;99.90;;;;;;5014475;28;19930;-64
2022/07/15 02:28:41;;;;;;;;;;;15.20;99.90;;;;;;5011314;28;19949;-64
2022/07/15 02:31:08;;;;;;;;;;;15.20;99.90;;;;;;5018037;28;19925;-63
2022/07/15 02:33:37;;;;;;;;;;;15.30;99.90;;;;;;5009344;28;19926;-64
2022/07/15 02:36:08;;;;;;;;;;;15.30;99.90;;;;;;5016386;28;19926;-63
2022/07/15 02:38:35;;;;;;;;;;;15.30;99.90;;;;;;5015409;28;19932;-64
2022/07/15 02:41:03;;;;;;;;;;;15.30;99.90;;;;;;5014380;28;20328;-63
2022/07/15 02:43:32;;;;;;;;;;;15.20;99.90;;;;;;5003232;28;19936;-63
2022/07/15 02:46:01;;;;;;;;;;;15.30;99.90;;;;;;5015159;28;20409;-63
2022/07/15 02:48:27;;;;;;;;;;;15.30;99.90;;;;;;5011023;28;19976;-64
2022/07/15 02:50:54;;;;;;;;;;;15.30;99.90;;;;;;5013987;28;20432;-64
2022/07/15 02:53:25;;;;;;;;;;;15.30;99.90;;;;;;5018216;28;19932;-64
2022/07/15 02:55:52;;;;;;;;;;;15.40;99.90;;;;;;5014984;28;19965;-64
2022/07/15 02:58:19;;;;;;;;;;;15.40;99.90;;;;;;5013996;28;19926;-64
2022/07/15 03:00:49;;;;;;;;;;;15.40;99.90;;;;;;4993357;28;19925;-64
2022/07/15 03:03:17;;;;;;;;;;;15.40;99.90;;;;;;5013737;28;19925;-64
2022/07/15 03:05:44;;;;;;;;;;;15.40;99.90;;;;;;5020247;28;19933;-64
2022/07/15 03:08:11;;;;;;;;;;;15.40;99.90;;;;;;5014813;28;19926;-64
2022/07/15 03:10:39;;;;;;;;;;;15.40;99.90;;;;;;5020272;28;19932;-64
2022/07/15 03:13:06;;;;;;;;;;;15.40;99.90;;;;;;5016767;28;19925;-64
2022/07/15 03:15:33;;;;;;;;;;;15.40;99.90;;;;;;5015312;28;20457;-63
2022/07/15 03:18:00;;;;;;;;;;;15.30;99.90;;;;;;5023142;28;19926;-64
2022/07/15 03:20:28;;;;;;;;;;;15.30;99.90;;;;;;5016191;28;19932;-64
2022/07/15 03:22:55;;;;;;;;;;;15.30;99.90;;;;;;5020856;28;20309;-64
2022/07/15 03:25:22;;;;;;;;;;;15.40;99.90;;;;;;5014203;28;19933;-64
2022/07/15 03:27:49;;;;;;;;;;;15.40;99.90;;;;;;5017317;28;20309;-65
2022/07/15 03:30:16;;;;;;;;;;;15.40;99.90;;;;;;5012180;28;19926;-63
2022/07/15 03:32:43;;;;;;;;;;;15.40;99.90;;;;;;5021872;28;20349;-64
2022/07/15 03:35:11;;;;;;;;;;;15.40;99.90;;;;;;5011913;28;19926;-64
2022/07/15 03:37:41;;;;;;;;;;;15.40;99.90;;;;;;5022766;28;19925;-64
2022/07/15 03:40:08;;;;;;;;;;;15.40;99.90;;;;;;5017365;28;19948;-64
2022/07/15 03:42:37;;;;;;;;;;;15.40;99.90;;;;;;5011659;28;19941;-64
2022/07/15 03:45:04;;;;;;;;;;;15.30;99.90;;;;;;5013763;28;20364;-64
2022/07/15 03:47:32;;;;;;;;;;;15.20;99.90;;;;;;5012358;28;19960;-64
2022/07/15 03:50:00;;;;;;;;;;;15.10;99.90;;;;;;5018393;28;19925;-64
2022/07/15 03:52:27;;;;;;;;;;;15.00;99.90;;;;;;5015668;28;20374;-64
2022/07/15 03:54:56;;;;;;;;;;;14.90;99.90;;;;;;5021312;28;20298;-64
2022/07/15 03:57:24;;;;;;;;;;;14.80;99.90;;;;;;5015008;28;19930;-64
2022/07/15 03:59:51;;;;;;;;;;;14.70;99.90;;;;;;5002275;28;20420;-64
2022/07/15 04:02:18;;;;;;;;;;;14.70;99.90;;;;;;5013629;28;19926;-65
2022/07/15 04:04:45;;;;;;;;;;;14.60;99.90;;;;;;5015028;28;19930;-64
2022/07/15 04:07:12;;;;;;;;;;;14.60;99.90;;;;;;5016869;28;19929;-64
2022/07/15 04:09:40;;;;;;;;;;;14.50;99.90;;;;;;5015472;28;20351;-64
2022/07/15 04:12:11;;;;;;;;;;;14.50;99.90;;;;;;5013685;28;19973;-64
2022/07/15 04:14:40;;;;;;;;;;;14.40;99.90;;;;;;4996713;28;20389;-64
2022/07/15 04:17:07;;;;;;;;;;;14.40;99.90;;;;;;5016729;28;19933;-64
2022/07/15 04:19:36;;;;;;;;;;;14.30;99.90;;;;;;5012563;28;19964;-64
2022/07/15 04:22:05;;;;;;;;;;;14.30;99.90;;;;;;5020437;28;20028;-64
2022/07/15 04:24:39;;;;;;;;;;;14.30;99.90;;;;;;5014924;28;19926;-65
2022/07/15 04:27:11;;;;;;;;;;;14.30;99.90;;;;;;5022457;28;19926;-65
2022/07/15 04:29:38;;;;;;;;;;;14.30;99.90;;;;;;5012457;28;19931;-65
2022/07/15 04:32:07;;;;;;;;;;;14.30;99.90;;;;;;5019737;28;19984;-65
2022/07/15 04:34:38;;;;;;;;;;;14.30;99.90;;;;;;5015542;28;20020;-65
2022/07/15 04:37:05;;;;;;;;;;;14.30;99.90;;;;;;5020966;28;19929;-65
2022/07/15 04:39:32;;;;;;;;;;;14.30;99.90;;;;;;5014183;28;19926;-65
2022/07/15 04:41:59;;;;;;;;;;;14.30;99.90;;;;;;5015468;28;19951;-65
2022/07/15 04:44:27;;;;;;;;;;;14.20;99.90;;;;;;5011491;28;19934;-65
2022/07/15 04:46:56;;;;;;;;;;;14.20;99.90;;;;;;5018884;28;19948;-65
2022/07/15 04:52:18;;;;;;;;;;;14.40;99.90;;;;;;5013967;28;19922;-65
2022/07/15 04:54:48;;;;;;;;;;;14.50;99.90;;;;;;5016131;28;19933;-65
2022/07/15 04:57:15;;;;;;;;;;;14.60;99.90;;;;;;5016178;28;19926;-65
2022/07/15 04:59:44;;;;;;;;;;;14.60;99.90;;;;;;5012914;28;20016;-66
2022/07/15 05:02:15;;;;;;;;;;;14.60;99.90;;;;;;5006986;28;19934;-65
2022/07/15 05:04:46;;;;;;;;;;;14.60;99.90;;;;;;5013395;28;20476;-65
2022/07/15 05:07:14;;;;;;;;;;;14.60;99.90;;;;;;5012801;28;19941;-65
2022/07/15 05:09:43;;;;;;;;;;;14.60;99.90;;;;;;5014619;28;19984;-64
2022/07/15 05:12:11;;;;;;;;;;;14.70;99.90;;;;;;5018390;28;20025;-65
2022/07/15 05:14:55;;;;;;;;;;;14.70;99.90;;;;;;5012059;28;19933;-65
2022/07/15 05:17:22;;;;;;;;;;;14.70;99.90;;;;;;5015585;28;19926;-64
2022/07/15 05:19:49;;;;;;;;;;;14.70;99.90;;;;;;5014800;28;19925;-64
2022/07/15 05:22:21;;;;;;;;;;;14.80;99.90;;;;;;5017871;28;19926;-64
2022/07/15 05:24:48;;;;;;;;;;;14.90;99.90;;;;;;5011173;28;19934;-64
2022/07/15 05:27:15;;;;;;;;;;;14.90;99.90;;;;;;5006708;28;20000;-64
2022/07/15 05:29:46;;;;;;;;;;;15.00;99.90;;;;;;5007504;28;20011;-64
2022/07/15 05:32:14;;;;;;;;;;;15.00;99.90;;;;;;4992050;28;20463;-65
2022/07/15 05:34:41;;;;;;;;;;;15.10;99.90;;;;;;5006389;28;19934;-64
2022/07/15 05:37:10;;;;;;;;;;;15.10;99.90;;;;;;5006750;28;19926;-64
2022/07/15 05:39:53;;;;;;;;;;;15.20;99.90;;;;;;5008559;28;19984;-64
2022/07/15 05:42:23;;;;;;;;;;;15.20;99.90;;;;;;5006768;28;20337;-64
2022/07/15 05:44:50;;;;;;;;;;;15.30;99.90;;;;;;5007519;28;19930;-65
2022/07/15 05:47:18;;;;;;;;;;;15.20;99.90;;;;;;5008808;28;19926;-64
2022/07/15 05:49:47;;;;;;;;;;;15.20;99.90;;;;;;5006232;28;19929;-64
2022/07/15 05:52:13;;;;;;;;;;;15.20;99.90;;;;;;5007480;28;19925;-66
2022/07/15 05:54:42;;;;;;;;;;;15.30;99.90;;;;;;5006724;28;19971;-64
2022/07/15 05:57:10;;;;;;;;;;;15.40;99.90;;;;;;5008756;28;19925;-65
2022/07/15 05:59:37;;;;;;;;;;;15.40;99.90;;;;;;5004955;28;20302;-65
2022/07/15 06:02:04;;;;;;;;;;;15.50;99.90;;;;;;5008373;28;19929;-65
2022/07/15 06:04:36;;;;;;;;;;;15.60;99.90;;;;;;5008229;28;19952;-65
2022/07/15 06:07:03;;;;;;;;;;;15.60;99.90;;;;;;5016902;28;20357;-64
2022/07/15 06:09:30;;;;;;;;;;;15.70;99.90;;;;;;5013590;28;19933;-65
2022/07/15 06:11:58;;;;;;;;;;;15.80;99.90;;;;;;5016668;28;19925;-64
2022/07/15 06:14:25;;;;;;;;;;;15.90;99.90;;;;;;5014425;28;19929;-65
2022/07/15 06:16:52;;;;;;;;;;;15.80;99.90;;;;;;5008215;28;19937;-65
2022/07/15 06:19:19;;;;;;;;;;;15.90;99.90;;;;;;5014271;28;19926;-65
2022/07/15 06:21:47;;;;;;;;;;;15.90;99.90;;;;;;5011704;28;20459;-65
2022/07/15 06:24:14;;;;;;;;;;;15.90;99.90;;;;;;5015317;28;19948;-65
2022/07/15 06:26:41;;;;;;;;;;;15.90;99.90;;;;;;5012413;28;19926;-65
2022/07/15 06:29:08;;;;;;;;;;;16.00;99.90;;;;;;5010219;28;19930;-66
2022/07/15 06:31:35;;;;;;;;;;;16.00;99.90;;;;;;5014238;28;19937;-66
2022/07/15 06:34:02;;;;;;;;;;;16.00;99.90;;;;;;5010643;28;19926;-67
2022/07/15 06:36:30;;;;;;;;;;;16.00;99.90;;;;;;5014523;28;19932;-67
2022/07/15 06:38:59;;;;;;;;;;;16.00;99.90;;;;;;5012776;28;19926;-66
2022/07/15 06:41:26;;;;;;;;;;;16.00;99.90;;;;;;5018753;28;19969;-67
2022/07/15 06:43:53;;;;;;;;;;;16.10;99.90;;;;;;5009662;28;20366;-66
2022/07/15 06:46:35;;;;;;;;;;;16.20;99.90;;;;;;5019516;28;19937;-67
2022/07/15 06:49:03;;;;;;;;;;;16.20;99.90;;;;;;5020943;28;19926;-67
2022/07/15 06:51:31;;;;;;;;;;;16.20;99.90;;;;;;5021640;28;19932;-67
2022/07/15 06:53:59;;;;;;;;;;;16.20;99.90;;;;;;5014365;28;19992;-66
2022/07/15 06:56:30;;;;;;;;;;;16.40;99.90;;;;;;5022774;28;19956;-67
2022/07/15 06:58:56;;;;;;;;;;;16.50;99.90;;;;;;5009987;28;20024;-67
2022/07/15 07:01:24;;;;;;;;;;;16.70;99.90;;;;;;5011032;28;19926;-67
2022/07/15 07:03:51;;;;;;;;;;;16.80;99.90;;;;;;5008199;28;19932;-68
2022/07/15 07:06:18;;;;;;;;;;;16.70;99.90;;;;;;5007107;28;19962;-67
2022/07/15 07:08:46;;;;;;;;;;;16.70;99.90;;;;;;5014117;28;19925;-67
2022/07/15 07:11:14;;;;;;;;;;;16.70;99.90;;;;;;5021563;28;19997;-67
2022/07/15 07:13:41;;;;;;;;;;;16.90;99.90;;;;;;5012172;28;19933;-67
2022/07/15 07:16:08;;;;;;;;;;;17.00;99.90;;;;;;5009439;28;19934;-67
2022/07/15 07:18:35;;;;;;;;;;;17.10;99.90;;;;;;5013242;28;19953;-66
2022/07/15 07:21:02;;;;;;;;;;;17.10;99.90;;;;;;5014042;28;19930;-65
2022/07/15 07:23:30;;;;;;;;;;;17.20;99.90;;;;;;5018748;28;20032;-66
2022/07/15 07:25:57;;;;;;;;;;;17.20;99.90;;;;;;5011424;28;19933;-66
2022/07/15 07:28:25;;;;;;;;;;;17.40;99.90;;;;;;4997542;28;19950;-66
2022/07/15 07:30:54;;;;;;;;;;;17.60;99.90;;;;;;4998708;28;20033;-66
2022/07/15 07:33:22;;;;;;;;;;;17.70;99.90;;;;;;5011290;28;19926;-66
2022/07/15 07:35:48;;;;;;;;;;;17.90;99.90;;;;;;5012036;28;20404;-72
2022/07/15 07:40:53;;;;;;;;;;;18.30;99.90;;;;;;5006510;28;19926;-73
2022/07/15 07:43:19;;;;;;;;;;;18.50;99.90;;;;;;5010982;28;19926;-64
2022/07/15 07:45:48;;;;;;;;;;;18.50;99.90;;;;;;5012024;28;19968;-64
2022/07/15 07:48:16;;;;;;;;;;;18.60;99.90;;;;;;5008187;28;19932;-65
2022/07/15 07:50:43;;;;;;;;;;;18.60;99.90;;;;;;5007646;28;19926;-64
2022/07/15 07:53:11;;;;;;;;;;;18.70;99.90;;;;;;5017934;28;19925;-64
2022/07/15 07:55:38;;;;;;;;;;;18.90;99.90;;;;;;4999389;28;20404;-63
2022/07/15 07:58:05;;;;;;;;;;;19.00;99.90;;;;;;4994872;28;19934;-64
2022/07/15 08:00:32;;;;;;;;;;;19.10;99.90;;;;;;5013715;28;19948;-64
2022/07/15 08:03:01;;;;;;;;;;;19.30;99.90;;;;;;4993193;28;19933;-64
2022/07/15 08:05:29;;;;;;;;;;;19.40;99.90;;;;;;5009939;28;19929;-64
2022/07/15 08:08:06;;;;;;;;;;;19.50;99.90;;;;;;5014640;28;19980;-64
2022/07/15 08:10:33;;;;;;;;;;;19.60;99.90;;;;;;4998382;28;19925;-67
2022/07/15 08:13:00;;;;;;;;;;;19.50;99.90;;;;;;4991451;28;19925;-65
2022/07/15 08:15:28;;;;;;;;;;;19.30;99.90;;;;;;4995246;28;20041;-64
2022/07/15 08:17:55;;;;;;;;;;;19.40;99.90;;;;;;5010224;28;19926;-65
2022/07/15 08:20:23;;;;;;;;;;;19.50;99.90;;;;;;4994953;28;19932;-66
2022/07/15 08:22:51;;;;;;;;;;;19.60;99.90;;;;;;4994595;28;19929;-66
2022/07/15 08:25:18;;;;;;;;;;;19.90;99.90;;;;;;5010282;28;19930;-65
2022/07/15 08:27:45;;;;;;;;;;;20.00;99.90;;;;;;5019338;28;19925;-64
2022/07/15 08:30:12;;;;;;;;;;;19.90;99.90;;;;;;5018108;28;19925;-65
2022/07/15 08:32:38;;;;;;;;;;;20.20;99.90;;;;;;4995033;28;19933;-65
2022/07/15 08:35:05;;;;;;;;;;;20.30;99.90;;;;;;4994927;28;19929;-65
2022/07/15 08:37:33;;;;;;;;;;;20.50;99.90;;;;;;5012152;28;20353;-64
2022/07/15 08:40:01;;;;;;;;;;;20.50;99.90;;;;;;4994838;28;19938;-64
2022/07/15 08:42:28;;;;;;;;;;;20.30;99.90;;;;;;5015882;28;19968;-65
2022/07/15 08:44:54;;;;;;;;;;;20.40;99.90;;;;;;4995051;28;20024;-64
2022/07/15 08:47:22;;;;;;;;;;;20.60;99.90;;;;;;5012634;28;20020;-66
2022/07/15 08:49:50;;;;;;;;;;;20.90;99.90;;;;;;5012358;28;19933;-66
2022/07/15 08:52:18;;;;;;;;;;;20.90;99.90;;;;;;5025318;28;19925;-64
2022/07/15 08:54:46;;;;;;;;;;;20.80;99.90;;;;;;5020466;28;20439;-65
2022/07/15 08:57:14;;;;;;;;;;;20.80;99.90;;;;;;5016974;28;19925;-64
2022/07/15 08:59:42;;;;;;;;;;;20.80;99.90;;;;;;5019422;28;19926;-65
2022/07/15 09:02:10;;;;;;;;;;;20.60;99.90;;;;;;5022457;28;19964;-65
2022/07/15 09:04:57;;;;;;;;;;;20.40;99.90;;;;;;5014846;28;20056;-65
2022/07/15 09:07:24;;;;;;;;;;;20.40;99.90;;;;;;4993779;28;19975;-64
2022/07/15 09:09:52;;;;;;;;;;;20.30;99.90;;;;;;5012792;28;20484;-65
2022/07/15 09:12:19;;;;;;;;;;;20.20;99.90;;;;;;5009254;28;19930;-66
2022/07/15 09:14:46;;;;;;;;;;;20.20;99.90;;;;;;4993848;28;19933;-65
2022/07/15 09:17:20;;;;;;;;;;;20.10;99.90;;;;;;4994038;28;19925;-66
2022/07/15 09:19:56;;;;;;;;;;;20.00;99.90;;;;;;5022348;28;19925;-64
2022/07/15 09:22:23;;;;;;;;;;;20.10;99.90;;;;;;5009452;28;19926;-65
2022/07/15 09:25:01;;;;;;;;;;;20.30;99.90;;;;;;5010898;28;19960;-64
2022/07/15 09:27:28;;;;;;;;;;;20.50;99.90;;;;;;5010251;28;19933;-65
2022/07/15 09:38:01;;;;;;;;;;;20.90;99.90;;;;;;5011644;28;19933;-67
2022/07/15 09:40:29;;;;;;;;;;;20.70;99.90;;;;;;4994380;28;19926;-67
2022/07/15 09:43:05;;;;;;;;;;;20.80;99.90;;;;;;5015651;28;19926;-67
2022/07/15 09:45:32;;;;;;;;;;;20.90;99.90;;;;;;5026695;28;19926;-67
2022/07/15 09:48:08;;;;;;;;;;;20.50;99.90;;;;;;5013344;28;19925;-68
2022/07/15 09:50:36;;;;;;;;;;;20.70;99.90;;;;;;5011414;28;20344;-68
2022/07/15 09:53:03;;;;;;;;;;;20.80;99.90;;;;;;5014554;28;19958;-70
2022/07/15 09:55:31;;;;;;;;;;;21.00;99.90;;;;;;5009802;28;20386;-70
2022/07/15 09:57:59;;;;;;;;;;;21.00;99.90;;;;;;5017304;28;19925;-68
2022/07/15 10:00:25;;;;;;;;;;;21.00;99.90;;;;;;5012117;28;20039;-67
2022/07/15 10:02:52;;;;;;;;;;;20.90;99.90;;;;;;5005532;28;19926;-68
2022/07/15 10:05:19;;;;;;;;;;;20.80;99.90;;;;;;4991534;28;19937;-69
2022/07/15 10:07:47;;;;;;;;;;;20.70;99.90;;;;;;5012309;28;19930;-68
2022/07/15 10:10:14;;;;;;;;;;;20.80;99.90;;;;;;5015458;28;20357;-67
2022/07/15 10:12:57;;;;;;;;;;;20.50;99.90;;;;;;5008869;28;19925;-67
2022/07/15 10:15:29;;;;;;;;;;;20.60;99.90;;;;;;5009438;28;20360;-67
2022/07/15 10:18:02;;;;;;;;;;;21.00;99.90;;;;;;5004995;28;19930;-66
2022/07/15 10:20:43;;;;;;;;;;;21.40;99.90;;;;;;4992933;28;20178;-68
2022/07/15 10:23:17;;;;;;;;;;;21.50;99.90;;;;;;4993283;28;19925;-66
2022/07/15 10:25:51;;;;;;;;;;;21.60;99.90;;;;;;5022279;28;19930;-67
2022/07/15 10:28:22;;;;;;;;;;;21.70;99.90;;;;;;5011677;28;20313;-68
2022/07/15 10:31:08;;;;;;;;;;;21.50;99.90;;;;;;5007232;28;19925;-68
2022/07/15 10:33:35;;;;;;;;;;;21.40;99.90;;;;;;5007078;28;19933;-68
2022/07/15 10:36:04;;;;;;;;;;;21.40;99.90;;;;;;5019182;28;19930;-69
2022/07/15 10:38:32;;;;;;;;;;;21.40;99.90;;;;;;4992155;28;19929;-69
2022/07/15 10:41:03;;;;;;;;;;;21.60;99.90;;;;;;5013529;28;19929;-71
2022/07/15 10:43:54;;;;;;;;;;;21.80;99.90;;;;;;5011901;28;20352;-69
2022/07/15 10:46:24;;;;;;;;;;;22.20;99.90;;;;;;5034944;28;19933;-69
2022/07/15 10:48:51;;;;;;;;;;;22.00;99.90;;;;;;5006360;28;19925;-69
2022/07/15 10:51:37;;;;;;;;;;;22.10;99.90;;;;;;4991867;28;19932;-68
2022/07/15 10:54:04;;;;;;;;;;;22.40;99.90;;;;;;5009848;28;20074;-71
2022/07/15 10:56:32;;;;;;;;;;;22.60;99.90;;;;;;4992864;28;19925;-71
2022/07/15 10:59:08;;;;;;;;;;;23.10;99.90;;;;;;5013021;28;19933;-69
2022/07/15 11:01:36;;;;;;;;;;;23.20;99.90;;;;;;4993144;28;19929;-69
2022/07/15 11:04:11;;;;;;;;;;;23.10;99.90;;;;;;5013071;28;19925;-69
2022/07/15 11:06:53;;;;;;;;;;;23.10;99.90;;;;;;5013959;28;19933;-69
2022/07/15 11:09:34;;;;;;;;;;;23.10;99.90;;;;;;4992409;28;19929;-69
2022/07/15 11:12:01;;;;;;;;;;;22.80;99.90;;;;;;4988386;28;19932;-69
2022/07/15 11:14:42;;;;;;;;;;;23.00;99.90;;;;;;5020378;28;19980;-69
2022/07/15 11:17:11;;;;;;;;;;;23.40;99.90;;;;;;5013291;28;20348;-69
2022/07/15 11:19:38;;;;;;;;;;;23.70;99.90;;;;;;5015201;28;19930;-68
2022/07/15 11:22:05;;;;;;;;;;;24.00;99.90;;;;;;5010107;28;19925;-67
2022/07/15 11:24:35;;;;;;;;;;;24.00;99.90;;;;;;5013119;28;19927;-68
2022/07/15 11:27:02;;;;;;;;;;;23.20;99.90;;;;;;4989632;28;19988;-67
2022/07/15 11:29:41;;;;;;;;;;;22.60;99.90;;;;;;5018661;28;19925;-68
2022/07/15 11:32:08;;;;;;;;;;;22.20;99.90;;;;;;5024539;28;19925;-67
2022/07/15 11:34:41;;;;;;;;;;;22.80;99.90;;;;;;4994148;28;19925;-67
2022/07/15 11:37:08;;;;;;;;;;;23.30;99.90;;;;;;5012342;28;19933;-67
2022/07/15 11:39:36;;;;;;;;;;;23.20;99.90;;;;;;5014866;28;19965;-69
2022/07/15 11:44:47;;;;;;;;;;;24.00;99.90;;;;;;5013984;28;19946;-68
2022/07/15 11:47:14;;;;;;;;;;;25.30;99.90;;;;;;4994330;28;20393;-68
2022/07/15 11:49:43;;;;;;;;;;;26.40;99.90;;;;;;5016835;28;19929;-69
2022/07/15 11:52:22;;;;;;;;;;;27.70;99.90;;;;;;5009762;28;19925;-70
2022/07/15 11:54:48;;;;;;;;;;;28.00;99.90;;;;;;4995618;28;20340;-68
2022/07/15 11:57:16;;;;;;;;;;;29.20;99.90;;;;;;5019368;28;19926;-69
2022/07/15 11:59:51;;;;;;;;;;;29.90;99.90;;;;;;5015050;28;19926;-68
2022/07/15 12:02:18;;;;;;;;;;;30.00;99.90;;;;;;5019739;28;19925;-68
2022/07/15 12:04:47;;;;;;;;;;;30.00;99.90;;;;;;5015871;28;20035;-69
2022/07/15 12:07:14;;;;;;;;;;;30.20;99.90;;;;;;5011685;28;19936;-68
2022/07/15 12:09:41;;;;;;;;;;;30.70;99.90;;;;;;5027368;28;19929;-68
2022/07/15 12:12:08;;;;;;;;;;;30.70;99.90;;;;;;5016090;28;19925;-68
2022/07/15 12:14:35;;;;;;;;;;;31.10;99.90;;;;;;5012939;28;19926;-68
2022/07/15 12:17:02;;;;;;;;;;;30.60;99.90;;;;;;4995032;28;19957;-68
2022/07/15 12:19:30;;;;;;;;;;;31.10;99.90;;;;;;5018764;28;19925;-68
2022/07/15 12:21:59;;;;;;;;;;;30.50;99.90;;;;;;5016863;28;20286;-69
2022/07/15 12:24:27;;;;;;;;;;;29.80;99.90;;;;;;4995142;28;20013;-68
2022/07/15 12:26:57;;;;;;;;;;;28.90;99.90;;;;;;4994760;28;19930;-68
2022/07/15 12:29:25;;;;;;;;;;;28.40;99.90;;;;;;4993914;28;19988;-69
2022/07/15 12:31:53;;;;;;;;;;;28.50;99.90;;;;;;4994678;28;19926;-68
2022/07/15 12:34:20;;;;;;;;;;;27.70;99.90;;;;;;5015066;28;19929;-68
2022/07/15 12:36:55;;;;;;;;;;;28.70;99.90;;;;;;5015012;28;19944;-70
2022/07/15 12:39:25;;;;;;;;;;;30.00;99.90;;;;;;5016895;28;19933;-68
2022/07/15 12:42:00;;;;;;;;;;;30.00;99.90;;;;;;4994608;28;19925;-68
2022/07/15 12:44:27;;;;;;;;;;;30.30;99.90;;;;;;5008857;28;19969;-68
2022/07/15 12:46:56;;;;;;;;;;;31.20;99.90;;;;;;4994317;28;19926;-69
2022/07/15 12:49:44;;;;;;;;;;;31.90;99.90;;;;;;5019179;28;19925;-70
2022/07/15 12:52:15;;;;;;;;;;;32.70;99.90;;;;;;5019948;28;19987;-68
2022/07/15 12:54:43;;;;;;;;;;;32.80;99.90;;;;;;5019511;28;19964;-68
2022/07/15 12:57:19;;;;;;;;;;;32.50;99.80;;;;;;5015454;28;20459;-69
2022/07/15 12:59:52;;;;;;;;;;;31.40;99.20;;;;;;5015077;28;19933;-66
2022/07/15 13:02:19;;;;;;;;;;;30.80;99.80;;;;;;4991985;28;19925;-68
2022/07/15 13:04:46;;;;;;;;;;;30.50;99.20;;;;;;5011049;28;19925;-69
2022/07/15 13:07:13;;;;;;;;;;;30.10;99.80;;;;;;4990931;28;19925;-68
2022/07/15 13:09:40;;;;;;;;;;;28.90;99.90;;;;;;5012308;28;19937;-68
2022/07/15 13:12:09;;;;;;;;;;;28.10;99.90;;;;;;5016291;28;19929;-69
2022/07/15 13:14:35;;;;;;;;;;;26.90;99.90;;;;;;4991981;28;19930;-68
2022/07/15 13:17:02;;;;;;;;;;;26.50;99.90;;;;;;4993774;28;19926;-68
2022/07/15 13:19:29;;;;;;;;;;;27.90;99.90;;;;;;5018388;28;19975;-68
2022/07/15 13:21:56;;;;;;;;;;;29.60;99.90;;;;;;5013565;28;19925;-69
2022/07/15 13:24:22;;;;;;;;;;;31.70;99.90;;;;;;4993988;28;20392;-68
2022/07/15 13:26:49;;;;;;;;;;;31.70;99.40;;;;;;5013705;28;19926;-70
2022/07/15 13:29:17;;;;;;;;;;;30.80;99.20;;;;;;4993619;28;19932;-68
2022/07/15 13:31:44;;;;;;;;;;;29.50;99.60;;;;;;5010223;28;19925;-69
2022/07/15 13:34:11;;;;;;;;;;;28.70;99.70;;;;;;4990830;28;19925;-68
2022/07/15 13:36:38;;;;;;;;;;;28.10;99.90;;;;;;5015840;28;20362;-69
2022/07/15 13:39:05;;;;;;;;;;;27.70;99.90;;;;;;5025776;28;20403;-68
2022/07/15 13:41:32;;;;;;;;;;;28.70;99.90;;;;;;5009178;28;19936;-68
2022/07/15 13:43:58;;;;;;;;;;;29.30;99.90;;;;;;4994258;28;19979;-68
2022/07/15 13:46:26;;;;;;;;;;;28.40;99.90;;;;;;4993220;28;20282;-69
2022/07/15 13:48:53;;;;;;;;;;;28.00;99.90;;;;;;5013282;28;20425;-66
2022/07/15 13:51:25;;;;;;;;;;;27.30;99.90;;;;;;4993316;28;20270;-67
2022/07/15 13:53:53;;;;;;;;;;;27.20;99.90;;;;;;4993283;28;19935;-68
2022/07/15 13:56:21;;;;;;;;;;;27.50;99.90;;;;;;4993581;28;19944;-68
2022/07/15 13:58:48;;;;;;;;;;;27.50;99.90;;;;;;5013964;28;19925;-68
2022/07/15 14:01:15;;;;;;;;;;;27.20;99.90;;;;;;5017421;28;19933;-69
2022/07/15 14:03:43;;;;;;;;;;;27.20;99.90;;;;;;5014537;28;19940;-68
2022/07/15 14:06:10;;;;;;;;;;;28.30;99.90;;;;;;5021076;28;19931;-67
2022/07/15 14:08:37;;;;;;;;;;;29.30;99.90;;;;;;5015178;28;19930;-68
2022/07/15 14:11:04;;;;;;;;;;;30.40;99.90;;;;;;5011424;28;20340;-68
2022/07/15 14:13:30;;;;;;;;;;;31.70;99.90;;;;;;4998665;28;20372;-70
2022/07/15 14:15:57;;;;;;;;;;;32.70;99.90;;;;;;5012008;28;19925;-73
2022/07/15 14:18:42;;;;;;;;;;;32.60;99.50;;;;;;4990969;28;19926;-65
2022/07/15 14:21:11;;;;;;;;;;;32.30;99.10;;;;;;5013071;28;20420;-67
2022/07/15 14:23:37;;;;;;;;;;;31.20;99.30;;;;;;4992063;28;20297;-67
2022/07/15 14:26:05;;;;;;;;;;;29.70;99.50;;;;;;5010503;28;20013;-70
2022/07/15 14:28:32;;;;;;;;;;;28.20;99.60;;;;;;5011425;28;19929;-67
2022/07/15 14:30:58;;;;;;;;;;;27.20;99.90;;;;;;5011149;28;20352;-68
2022/07/15 14:33:25;;;;;;;;;;;26.40;99.90;;;;;;5016429;28;19926;-67
2022/07/15 14:35:52;;;;;;;;;;;25.90;99.90;;;;;;5009893;28;19933;-70
2022/07/15 14:38:20;;;;;;;;;;;25.70;99.90;;;;;;4993286;28;19933;-67
2022/07/15 14:40:47;;;;;;;;;;;25.70;99.90;;;;;;5013388;28;20396;-67
2022/07/15 14:43:14;;;;;;;;;;;25.70;99.90;;;;;;5012601;28;19933;-68
2022/07/15 14:45:41;;;;;;;;;;;26.50;99.90;;;;;;5018816;28;19991;-68
2022/07/15 14:48:07;;;;;;;;;;;28.10;99.60;;;;;;5016009;28;19932;-67